Time;durP1;ratioP1;P1;durP2;ratioP2;P2;SDS_P1;SDS_P2;PMS_P1;PMS_P2;Temp;Humidity;BMP_temperature;BMP_pressure;BME280_temperature;BME280_humidity;BME280_pressure;Samples;Min_cycle;Max_cycle;Signal;HPM_P1;HPM_P2
2023/06/06 00:01:49;;;;;;;11.18;4.45;;;11.80;99.90;;;;;;5064786;28;20075;-56
2023/06/06 00:04:17;;;;;;;7.35;4.68;;;11.70;99.90;;;;;;5062302;28;20053;-57
2023/06/06 00:06:47;;;;;;;13.10;5.72;;;11.70;99.90;;;;;;5066840;28;20051;-58
2023/06/06 00:09:15;;;;;;;12.43;5.28;;;11.70;99.90;;;;;;5080256;28;20051;-57
2023/06/06 00:11:46;;;;;;;8.20;5.28;;;11.70;99.90;;;;;;5081134;28;20036;-57
2023/06/06 00:14:18;;;;;;;9.60;4.82;;;11.70;99.90;;;;;;5067941;28;20045;-57
2023/06/06 00:16:49;;;;;;;8.45;5.28;;;11.70;99.90;;;;;;5066417;28;20044;-58
2023/06/06 00:19:20;;;;;;;10.15;5.43;;;11.80;99.90;;;;;;5064208;28;20511;-58
2023/06/06 00:21:48;;;;;;;13.02;5.60;;;11.80;99.90;;;;;;5070418;28;20051;-58
2023/06/06 00:24:17;;;;;;;11.07;5.28;;;11.80;99.90;;;;;;5065521;28;20569;-57
2023/06/06 00:26:45;;;;;;;8.48;4.50;;;11.90;99.90;;;;;;5067755;28;20123;-57
2023/06/06 00:29:13;;;;;;;12.15;5.50;;;11.90;99.90;;;;;;5074286;28;20044;-57
2023/06/06 00:31:42;;;;;;;11.07;4.90;;;11.90;99.90;;;;;;5074907;28;20059;-57
2023/06/06 00:34:11;;;;;;;8.40;4.97;;;11.90;99.90;;;;;;5064668;28;20480;-57
2023/06/06 00:36:39;;;;;;;8.32;5.15;;;11.90;99.90;;;;;;5062928;28;20072;-57
2023/06/06 00:39:06;;;;;;;9.18;4.72;;;12.00;99.90;;;;;;5052945;28;20382;-57
2023/06/06 00:41:34;;;;;;;9.98;5.03;;;12.00;99.90;;;;;;5055180;28;20052;-57
2023/06/06 00:44:02;;;;;;;7.90;4.30;;;11.90;99.90;;;;;;5062431;28;20377;-57
2023/06/06 00:46:30;;;;;;;7.65;4.80;;;11.90;99.90;;;;;;5069354;28;20508;-57
2023/06/06 00:48:58;;;;;;;8.95;4.80;;;11.90;99.90;;;;;;5077025;28;20407;-57
2023/06/06 00:51:26;;;;;;;10.65;6.15;;;11.90;99.90;;;;;;5076593;28;20052;-56
2023/06/06 00:53:59;;;;;;;8.77;5.32;;;11.80;99.90;;;;;;5079187;28;20048;-56
2023/06/06 00:56:28;;;;;;;10.80;5.80;;;11.80;99.90;;;;;;5064632;28;20048;-56
2023/06/06 00:59:01;;;;;;;7.93;4.95;;;11.80;99.90;;;;;;5070307;28;20040;-57
2023/06/06 01:01:33;;;;;;;9.18;5.85;;;11.80;99.90;;;;;;5068062;28;20044;-57
2023/06/06 01:04:07;;;;;;;11.20;6.35;;;11.80;99.90;;;;;;5065680;28;20047;-58
2023/06/06 01:06:38;;;;;;;10.88;6.32;;;11.80;99.90;;;;;;5066596;28;20041;-56
2023/06/06 01:09:08;;;;;;;16.40;6.78;;;11.80;99.90;;;;;;5080079;28;20044;-57
2023/06/06 01:11:45;;;;;;;11.70;5.97;;;11.80;99.90;;;;;;5059325;28;20511;-56
2023/06/06 01:14:19;;;;;;;11.30;6.22;;;11.80;99.90;;;;;;5066940;28;20044;-58
2023/06/06 01:16:52;;;;;;;13.80;6.15;;;11.80;99.90;;;;;;5069199;28;20056;-57
2023/06/06 01:19:27;;;;;;;11.65;7.15;;;11.80;99.90;;;;;;5069001;28;20044;-56
2023/06/06 01:21:56;;;;;;;11.00;7.05;;;11.80;99.90;;;;;;5068440;28;20048;-58
2023/06/06 01:24:24;;;;;;;11.98;7.15;;;11.80;99.90;;;;;;5068195;28;20051;-57
2023/06/06 01:26:54;;;;;;;13.75;6.68;;;11.80;99.90;;;;;;5066191;28;20048;-56
2023/06/06 01:29:23;;;;;;;10.70;7.25;;;11.80;99.90;;;;;;5068431;28;20041;-56
2023/06/06 01:32:07;;;;;;;15.38;8.30;;;11.80;99.90;;;;;;5064007;28;20040;-56
2023/06/06 01:34:48;;;;;;;14.30;7.60;;;11.70;99.90;;;;;;5069126;28;20045;-57
2023/06/06 01:37:31;;;;;;;15.38;8.32;;;11.70;99.90;;;;;;5062766;28;20056;-57
2023/06/06 01:40:07;;;;;;;13.73;7.68;;;11.70;99.90;;;;;;5071458;28;20059;-57
2023/06/06 01:42:42;;;;;;;15.30;7.82;;;11.70;99.90;;;;;;5074744;28;20044;-57
2023/06/06 01:45:12;;;;;;;15.27;8.43;;;11.70;99.90;;;;;;5065254;28;20033;-58
2023/06/06 01:47:41;;;;;;;16.83;8.93;;;11.70;99.90;;;;;;5050653;28;20067;-57
2023/06/06 01:50:10;;;;;;;13.48;8.77;;;11.70;99.90;;;;;;5104639;28;20055;-57
2023/06/06 01:52:38;;;;;;;12.45;8.15;;;11.70;99.90;;;;;;5065934;28;20041;-55
2023/06/06 01:55:10;;;;;;;15.27;8.35;;;11.60;99.90;;;;;;5065768;28;20511;-57
2023/06/06 01:57:38;;;;;;;13.82;8.18;;;11.70;99.90;;;;;;5064386;28;20051;-56
2023/06/06 02:00:08;;;;;;;15.68;8.18;;;11.60;99.90;;;;;;5070723;28;20048;-56
2023/06/06 02:02:42;;;;;;;14.05;7.35;;;11.60;99.90;;;;;;5066597;28;20416;-56
2023/06/06 02:05:11;;;;;;;12.07;8.05;;;11.60;99.90;;;;;;5065391;28;20036;-57
2023/06/06 02:07:41;;;;;;;11.68;7.75;;;11.60;99.90;;;;;;5072069;28;20083;-57
2023/06/06 02:10:10;;;;;;;12.07;8.25;;;11.60;99.90;;;;;;5068924;28;20048;-57
2023/06/06 02:12:37;;;;;;;13.82;7.70;;;11.60;99.90;;;;;;5073284;28;20040;-57
2023/06/06 02:15:07;;;;;;;16.85;8.20;;;11.60;99.90;;;;;;5053629;28;20045;-58
2023/06/06 02:17:37;;;;;;;14.18;7.60;;;11.60;99.90;;;;;;5061070;28;20609;-57
2023/06/06 02:20:09;;;;;;;16.15;7.32;;;11.60;99.90;;;;;;5063718;28;20515;-57
2023/06/06 02:22:38;;;;;;;11.80;7.53;;;11.60;99.90;;;;;;5049844;28;20556;-56
2023/06/06 02:25:08;;;;;;;12.82;8.23;;;11.60;99.90;;;;;;5065867;28;20067;-58
2023/06/06 02:27:36;;;;;;;11.60;7.68;;;11.60;99.90;;;;;;5063501;28;20059;-56
2023/06/06 02:30:08;;;;;;;13.15;7.57;;;11.60;99.90;;;;;;5066624;28;20033;-58
2023/06/06 02:32:36;;;;;;;13.48;7.53;;;11.60;99.90;;;;;;5074055;28;20048;-57
2023/06/06 02:35:05;;;;;;;12.25;7.82;;;;;;;;;;5069867;28;20460;-57
2023/06/06 02:37:33;;;;;;;12.23;7.38;;;11.50;99.90;;;;;;5062234;28;20049;-58
2023/06/06 02:40:08;;;;;;;14.57;7.65;;;11.50;99.90;;;;;;5067143;28;20052;-56
2023/06/06 02:42:38;;;;;;;16.10;7.68;;;11.60;99.90;;;;;;5077054;28;20040;-57
2023/06/06 02:45:10;;;;;;;13.30;8.13;;;11.60;99.90;;;;;;5059620;28;20048;-56
2023/06/06 02:47:38;;;;;;;;;;;11.70;99.90;;;;;;5062666;28;20413;-57
2023/06/06 02:50:07;;;;;;;14.07;7.80;;;11.70;99.90;;;;;;5066700;28;19927;-57
2023/06/06 02:52:38;;;;;;;15.38;8.35;;;11.70;99.90;;;;;;5056080;28;20047;-56
2023/06/06 02:55:07;;;;;;;12.45;8.20;;;11.80;99.90;;;;;;5058152;28;22023;-57
2023/06/06 02:57:35;;;;;;;14.98;7.97;;;11.70;99.90;;;;;;5062363;28;20053;-57
2023/06/06 03:00:08;;;;;;;15.80;7.90;;;11.70;99.90;;;;;;5085476;28;20051;-57
2023/06/06 03:02:36;;;;;;;12.57;7.35;;;11.70;99.90;;;;;;5085439;28;20494;-56
2023/06/06 03:05:06;;;;;;;12.23;6.53;;;11.70;99.90;;;;;;5076262;28;20351;-56
2023/06/06 03:07:34;;;;;;;14.60;7.43;;;11.70;99.90;;;;;;5066934;28;20037;-56
2023/06/06 03:10:02;;;;;;;10.70;7.15;;;11.60;99.90;;;;;;5067278;28;20628;-57
2023/06/06 03:12:38;;;;;;;12.13;6.50;;;11.60;99.90;;;;;;5087171;28;20044;-56
2023/06/06 03:15:06;;;;;;;11.43;6.25;;;11.50;99.90;;;;;;5073357;28;20064;-57
2023/06/06 03:17:40;;;;;;;13.45;6.70;;;11.50;99.90;;;;;;5065382;28;20607;-56
2023/06/06 03:20:09;;;;;;;11.57;6.10;;;11.40;99.90;;;;;;5068573;28;20036;-56
2023/06/06 03:22:39;;;;;;;14.10;7.53;;;11.40;99.90;;;;;;5049064;28;20049;-56
2023/06/06 03:25:07;;;;;;;15.32;8.20;;;11.40;99.90;;;;;;5062979;28;20055;-57
2023/06/06 03:27:35;;;;;;;15.68;7.70;;;11.40;99.90;;;;;;5071119;28;20036;-55
2023/06/06 03:30:06;;;;;;;13.95;8.93;;;11.40;99.90;;;;;;5069185;28;20044;-55
2023/06/06 03:32:35;;;;;;;13.43;8.60;;;11.40;99.90;;;;;;5057289;28;20435;-57
2023/06/06 03:35:04;;;;;;;15.52;9.38;;;11.40;99.90;;;;;;5069524;28;20051;-57
2023/06/06 03:37:33;;;;;;;12.88;9.10;;;11.40;99.90;;;;;;5061644;28;20036;-55
2023/06/06 03:40:03;;;;;;;17.25;8.73;;;11.40;99.90;;;;;;5053093;28;20059;-56
2023/06/06 03:42:31;;;;;;;17.15;11.00;;;11.40;99.90;;;;;;5070136;28;20067;-56
2023/06/06 03:44:59;;;;;;;17.20;9.90;;;11.50;99.90;;;;;;5070299;28;20055;-56
2023/06/06 03:47:28;;;;;;;16.45;9.77;;;11.50;99.90;;;;;;5073844;28;20072;-57
2023/06/06 03:49:56;;;;;;;14.27;9.10;;;11.50;99.90;;;;;;5072738;28;20055;-57
2023/06/06 03:52:25;;;;;;;15.43;8.70;;;11.50;99.90;;;;;;5057840;28;20044;-56
2023/06/06 03:54:53;;;;;;;15.35;8.88;;;11.40;99.90;;;;;;5063081;28;20048;-56
2023/06/06 03:57:21;;;;;;;15.27;8.38;;;11.50;99.90;;;;;;5079042;28;20060;-57
2023/06/06 03:59:54;;;;;;;13.60;9.23;;;11.40;99.90;;;;;;5072182;28;20052;-57
2023/06/06 04:02:22;;;;;;;14.10;8.50;;;11.50;99.90;;;;;;5062703;28;20048;-56
2023/06/06 04:04:50;;;;;;;13.88;8.98;;;11.50;99.90;;;;;;5068087;28;20044;-56
2023/06/06 04:07:18;;;;;;;13.50;8.93;;;11.40;99.90;;;;;;5063077;28;20392;-57
2023/06/06 04:09:46;;;;;;;14.88;8.70;;;11.40;99.90;;;;;;5053715;28;20060;-57
2023/06/06 04:12:14;;;;;;;17.23;10.50;;;11.40;99.90;;;;;;5091580;28;20043;-56
2023/06/06 04:14:42;;;;;;;18.35;10.25;;;11.30;99.90;;;;;;5081104;28;20037;-57
2023/06/06 04:17:10;;;;;;;16.00;11.00;;;11.40;99.90;;;;;;5073891;28;20049;-57
2023/06/06 04:19:38;;;;;;;16.20;11.10;;;11.40;99.90;;;;;;5067963;28;20419;-57
2023/06/06 04:22:07;;;;;;;17.42;10.82;;;11.30;99.90;;;;;;5056133;28;20523;-57
2023/06/06 04:24:36;;;;;;;17.67;10.23;;;11.30;99.90;;;;;;5057512;28;20036;-55
2023/06/06 04:27:04;;;;;;;15.20;9.50;;;11.40;99.90;;;;;;5066805;28;20071;-55
2023/06/06 04:29:33;;;;;;;15.57;10.60;;;11.30;99.90;;;;;;5060444;28;20060;-57
2023/06/06 04:32:02;;;;;;;17.50;10.80;;;11.30;99.90;;;;;;5069035;28;20040;-57
2023/06/06 04:34:31;;;;;;;14.48;10.40;;;11.30;99.90;;;;;;5068364;28;20403;-57
2023/06/06 04:37:04;;;;;;;17.50;11.02;;;11.30;99.90;;;;;;5058621;28;20056;-56
2023/06/06 04:39:35;;;;;;;18.25;10.82;;;11.30;99.90;;;;;;5072685;28;20056;-57
2023/06/06 04:42:07;;;;;;;16.15;10.35;;;11.30;99.90;;;;;;5077039;28;20510;-57
2023/06/06 04:44:41;;;;;;;14.57;10.13;;;11.30;99.90;;;;;;5072204;28;20033;-57
2023/06/06 04:47:10;;;;;;;18.20;10.50;;;11.30;99.90;;;;;;5070207;28;20040;-55
2023/06/06 04:49:40;;;;;;;14.73;9.60;;;11.30;99.90;;;;;;5064206;28;20048;-56
2023/06/06 04:52:10;;;;;;;16.05;9.32;;;11.30;99.90;;;;;;5049032;28;20037;-56
2023/06/06 04:54:39;;;;;;;;;;;11.30;99.90;;;;;;5061649;28;20058;-58
2023/06/06 04:57:08;;;;;;;17.40;10.30;;;11.30;99.90;;;;;;5065370;28;19921;-56
2023/06/06 04:59:37;;;;;;;14.68;9.18;;;11.30;99.90;;;;;;5075034;28;20130;-57
2023/06/06 05:02:06;;;;;;;13.20;8.60;;;11.30;99.90;;;;;;5062537;28;20599;-56
2023/06/06 05:04:35;;;;;;;12.63;7.57;;;11.40;99.90;;;;;;5064820;28;20241;-56
2023/06/06 05:07:03;;;;;;;11.23;7.53;;;11.40;99.90;;;;;;5065966;28;20055;-56
2023/06/06 05:09:31;;;;;;;11.32;6.75;;;11.40;99.90;;;;;;5074696;28;20045;-56
2023/06/06 05:11:59;;;;;;;10.23;6.45;;;11.40;99.90;;;;;;5073835;28;20531;-56
2023/06/06 05:14:27;;;;;;;8.35;5.93;;;11.40;99.90;;;;;;5065261;28;20500;-57
2023/06/06 05:16:57;;;;;;;8.98;5.32;;;11.40;99.90;;;;;;5067429;28;20060;-57
2023/06/06 05:19:24;;;;;;;6.40;4.22;;;11.40;99.90;;;;;;5065294;28;20056;-57
2023/06/06 05:21:52;;;;;;;7.85;4.00;;;11.50;99.90;;;;;;5063929;28;20103;-57
2023/06/06 05:24:21;;;;;;;5.18;3.08;;;;;;;;;;5062233;28;20424;-57
2023/06/06 05:26:48;;;;;;;4.35;3.20;;;11.50;99.90;;;;;;5066483;28;20052;-57
2023/06/06 05:29:17;;;;;;;5.22;3.45;;;11.40;99.90;;;;;;5046494;28;20056;-56
2023/06/06 05:31:45;;;;;;;4.68;3.60;;;11.30;99.90;;;;;;5047826;28;20051;-57
2023/06/06 05:34:13;;;;;;;5.88;3.20;;;11.40;99.90;;;;;;5064653;28;20360;-56
2023/06/06 05:36:42;;;;;;;4.13;3.03;;;11.40;99.90;;;;;;5067508;28;20048;-57
2023/06/06 05:39:10;;;;;;;4.63;3.03;;;11.40;99.90;;;;;;5067308;28;20507;-57
2023/06/06 05:41:38;;;;;;;6.95;3.53;;;11.40;99.90;;;;;;5082846;28;20047;-54
2023/06/06 05:44:06;;;;;;;5.28;3.50;;;11.40;99.90;;;;;;5076455;28;20064;-57
2023/06/06 05:46:34;;;;;;;6.35;3.30;;;11.40;99.90;;;;;;5064541;28;20045;-56
2023/06/06 05:49:02;;;;;;;6.35;3.25;;;11.50;99.90;;;;;;5065492;28;20049;-56
2023/06/06 05:51:30;;;;;;;8.00;3.80;;;11.50;99.90;;;;;;5065704;28;20068;-56
2023/06/06 05:53:58;;;;;;;4.78;3.42;;;11.60;99.90;;;;;;5066097;28;20048;-57
2023/06/06 05:56:43;;;;;;;9.57;3.80;;;11.60;99.90;;;;;;5059781;28;20628;-55
2023/06/06 05:59:11;;;;;;;8.15;3.78;;;11.60;99.90;;;;;;5068913;28;20041;-56
2023/06/06 06:01:39;;;;;;;10.38;3.72;;;12.60;99.90;;;;;;5062149;28;20044;-55
2023/06/06 06:04:08;;;;;;;6.18;4.00;;;11.60;99.90;;;;;;5062071;28;20047;-56
2023/06/06 06:06:37;;;;;;;5.90;3.20;;;11.60;99.90;;;;;;5060820;28;20216;-56
2023/06/06 06:09:05;;;;;;;5.82;3.53;;;;;;;;;;5061092;28;20045;-57
2023/06/06 06:11:33;;;;;;;4.85;3.38;;;11.60;99.90;;;;;;5063640;28;20040;-56
2023/06/06 06:14:01;;;;;;;5.20;3.08;;;11.70;99.90;;;;;;5064447;28;20147;-56
2023/06/06 06:16:29;;;;;;;5.78;3.60;;;11.70;99.90;;;;;;5068014;28;20111;-58
2023/06/06 06:18:58;;;;;;;7.68;3.90;;;11.70;99.90;;;;;;5064395;28;20518;-56
2023/06/06 06:21:26;;;;;;;6.55;3.50;;;11.70;99.90;;;;;;5067987;28;20048;-56
2023/06/06 06:23:54;;;;;;;6.00;3.67;;;11.60;99.90;;;;;;5064519;28;20060;-58
2023/06/06 06:26:22;;;;;;;7.18;4.07;;;11.70;99.90;;;;;;5064509;28;20044;-57
2023/06/06 06:28:54;;;;;;;5.50;3.72;;;;;;;;;;5059054;28;20049;-57
2023/06/06 06:31:22;;;;;;;7.20;3.72;;;11.70;99.90;;;;;;5047405;28;20048;-58
2023/06/06 06:33:50;;;;;;;5.95;3.63;;;11.70;99.90;;;;;;5062293;28;20541;-57
2023/06/06 06:36:18;;;;;;;5.95;4.50;;;11.80;99.90;;;;;;5064553;28;20044;-57
2023/06/06 06:38:46;;;;;;;7.28;4.28;;;11.80;99.90;;;;;;5064293;28;20044;-57
2023/06/06 06:41:14;;;;;;;8.15;4.22;;;11.90;99.90;;;;;;5073893;28;20060;-57
2023/06/06 06:43:42;;;;;;;6.93;3.55;;;11.90;99.90;;;;;;5067520;28;20064;-56
2023/06/06 06:46:16;;;;;;;5.10;3.20;;;11.90;99.90;;;;;;5067201;28;20052;-56
2023/06/06 06:48:45;;;;;;;7.57;3.75;;;11.90;99.90;;;;;;5058666;28;20433;-57
2023/06/06 06:51:13;;;;;;;8.73;3.37;;;12.00;99.90;;;;;;5067016;28;20069;-57
2023/06/06 06:53:42;;;;;;;5.40;3.65;;;11.90;99.90;;;;;;5050167;28;20458;-57
2023/06/06 06:56:10;;;;;;;5.68;3.38;;;12.00;99.90;;;;;;5065267;28;20052;-57
2023/06/06 06:58:41;;;;;;;5.55;3.30;;;12.00;99.90;;;;;;5064065;28;20040;-56
2023/06/06 07:01:09;;;;;;;7.20;4.20;;;11.90;99.90;;;;;;5066979;28;20040;-56
2023/06/06 07:03:37;;;;;;;7.60;3.05;;;11.90;99.90;;;;;;5061886;28;20377;-57
2023/06/06 07:06:08;;;;;;;4.90;3.75;;;11.90;99.90;;;;;;5058583;28;20052;-56
2023/06/06 07:08:36;;;;;;;5.20;3.30;;;11.90;99.90;;;;;;5061088;28;20047;-57
2023/06/06 07:11:04;;;;;;;4.75;3.50;;;11.90;99.90;;;;;;5064949;28;20049;-56
2023/06/06 07:13:31;;;;;;;4.70;2.88;;;11.90;99.90;;;;;;5055777;28;20048;-57
2023/06/06 07:15:59;;;;;;;5.78;3.17;;;11.90;99.90;;;;;;5062773;28;20045;-57
2023/06/06 07:18:27;;;;;;;4.72;3.20;;;11.90;99.90;;;;;;5059407;28;20059;-57
2023/06/06 07:20:55;;;;;;;5.07;3.28;;;11.90;99.90;;;;;;5061955;28;20041;-57
2023/06/06 07:23:23;;;;;;;9.68;3.80;;;11.90;99.90;;;;;;5054947;28;20400;-56
2023/06/06 07:25:51;;;;;;;5.00;3.40;;;11.90;99.90;;;;;;5053555;28;20045;-57
2023/06/06 07:28:19;;;;;;;5.90;3.10;;;11.90;99.90;;;;;;5058070;28;20056;-57
2023/06/06 07:30:50;;;;;;;5.32;3.40;;;12.00;99.90;;;;;;5044709;28;20511;-57
2023/06/06 07:33:19;;;;;;;7.75;3.92;;;12.00;99.90;;;;;;5052890;28;20043;-57
2023/06/06 07:35:47;;;;;;;5.75;3.88;;;12.00;99.90;;;;;;5064203;28;20045;-56
2023/06/06 07:38:14;;;;;;;5.35;3.70;;;12.10;99.90;;;;;;5064316;28;20416;-56
2023/06/06 07:40:42;;;;;;;6.97;3.72;;;12.10;99.90;;;;;;5061900;28;20534;-57
2023/06/06 07:43:11;;;;;;;6.03;3.50;;;12.10;99.90;;;;;;5055592;28;20628;-56
2023/06/06 07:45:39;;;;;;;6.53;3.85;;;12.10;99.90;;;;;;5058000;28;20049;-57
2023/06/06 07:48:10;;;;;;;4.93;3.45;;;12.10;99.90;;;;;;5070403;28;20044;-58
2023/06/06 07:50:38;;;;;;;6.88;4.07;;;12.20;99.90;;;;;;5059998;28;20048;-57
2023/06/06 07:53:05;;;;;;;9.95;4.10;;;12.20;99.90;;;;;;5060404;28;20793;-56
2023/06/06 07:55:35;;;;;;;12.18;4.68;;;12.20;99.90;;;;;;5063115;28;20049;-58
2023/06/06 07:58:12;;;;;;;8.05;4.25;;;12.30;99.90;;;;;;5063409;28;20048;-57
2023/06/06 08:00:41;;;;;;;6.88;4.50;;;12.30;99.90;;;;;;5060063;28;20041;-57
2023/06/06 08:03:11;;;;;;;5.90;4.20;;;12.40;99.90;;;;;;5053939;28;20040;-57
2023/06/06 08:05:39;;;;;;;7.47;4.70;;;12.40;99.90;;;;;;5065221;28;20492;-56
2023/06/06 08:08:07;;;;;;;7.40;4.30;;;12.40;99.90;;;;;;5066806;28;20040;-58
2023/06/06 08:10:36;;;;;;;5.93;4.22;;;12.40;99.90;;;;;;5064459;28;20045;-57
2023/06/06 08:13:04;;;;;;;8.10;4.72;;;12.50;99.90;;;;;;5064338;28;20052;-57
2023/06/06 08:15:31;;;;;;;7.00;4.43;;;12.50;99.90;;;;;;5064294;28;20610;-56
2023/06/06 08:17:59;;;;;;;11.30;4.28;;;12.50;99.90;;;;;;5065443;28;20044;-57
2023/06/06 08:20:27;;;;;;;6.93;4.30;;;12.50;99.90;;;;;;5061564;28;20044;-57
2023/06/06 08:22:55;;;;;;;6.28;4.47;;;12.50;99.90;;;;;;5060793;28;20048;-57
2023/06/06 08:25:23;;;;;;;7.22;4.90;;;12.60;99.90;;;;;;5061414;28;20044;-57
2023/06/06 08:27:51;;;;;;;8.45;4.30;;;12.60;99.90;;;;;;5065959;28;20056;-57
2023/06/06 08:30:21;;;;;;;8.73;4.40;;;12.70;99.90;;;;;;5070599;28;20056;-57
2023/06/06 08:32:50;;;;;;;8.02;4.65;;;12.70;99.90;;;;;;5068151;28;20052;-58
2023/06/06 08:35:19;;;;;;;9.15;4.63;;;12.80;99.90;;;;;;5068709;28;20044;-56
2023/06/06 08:37:48;;;;;;;7.57;4.97;;;12.80;99.90;;;;;;5075581;28;20114;-58
2023/06/06 08:40:16;;;;;;;8.52;4.57;;;12.80;99.90;;;;;;5067300;28;20067;-56
2023/06/06 08:42:48;;;;;;;6.68;4.22;;;12.90;99.90;;;;;;5066281;28;20768;-56
2023/06/06 08:45:20;;;;;;;6.35;4.50;;;12.90;99.90;;;;;;5066608;28;20052;-55
2023/06/06 08:47:49;;;;;;;6.70;4.47;;;12.90;99.90;;;;;;5064098;28;20041;-57
2023/06/06 08:50:23;;;;;;;12.63;4.27;;;13.00;99.90;;;;;;5051635;28;20102;-57
2023/06/06 08:52:51;;;;;;;4.75;3.80;;;13.00;99.90;;;;;;5068051;28;20293;-57
2023/06/06 08:55:20;;;;;;;8.23;4.13;;;13.00;99.90;;;;;;5067889;28;20044;-56
2023/06/06 08:57:48;;;;;;;9.13;4.43;;;13.10;99.90;;;;;;5065553;28;20409;-57
2023/06/06 09:00:21;;;;;;;7.70;4.53;;;13.10;99.90;;;;;;5068120;28;20065;-57
2023/06/06 09:02:52;;;;;;;6.72;4.10;;;13.10;99.90;;;;;;5068812;28;20044;-56
2023/06/06 09:05:21;;;;;;;7.03;4.38;;;13.10;99.90;;;;;;5068842;28;20663;-56
2023/06/06 09:07:53;;;;;;;5.90;4.35;;;13.20;99.90;;;;;;5060572;28;20044;-56
2023/06/06 09:10:21;;;;;;;8.88;5.47;;;13.20;99.90;;;;;;5065074;28;20048;-57
2023/06/06 09:12:49;;;;;;;8.15;4.88;;;13.30;99.90;;;;;;5059258;28;20044;-57
2023/06/06 09:15:16;;;;;;;9.55;5.03;;;13.40;99.90;;;;;;5079047;28;20044;-57
2023/06/06 09:17:46;;;;;;;10.38;5.78;;;13.30;99.90;;;;;;5064400;28;20059;-58
2023/06/06 09:20:16;;;;;;;8.38;5.65;;;13.40;99.90;;;;;;5068573;28;20400;-57
2023/06/06 09:22:46;;;;;;;8.25;5.22;;;13.40;99.90;;;;;;5068218;28;20043;-57
2023/06/06 09:25:25;;;;;;;7.65;5.57;;;13.40;99.90;;;;;;5064156;28;20500;-56
2023/06/06 09:28:00;;;;;;;10.65;5.70;;;13.40;99.90;;;;;;5066066;28;20404;-56
2023/06/06 09:30:32;;;;;;;6.95;5.07;;;13.50;99.90;;;;;;5068328;28;20036;-57
2023/06/06 09:33:02;;;;;;;8.05;5.60;;;13.50;99.90;;;;;;5069046;28;20053;-58
2023/06/06 09:35:52;;;;;;;9.07;5.45;;;13.60;99.90;;;;;;5069000;28;20052;-58
2023/06/06 09:38:20;;;;;;;8.00;4.90;;;13.60;99.90;;;;;;5068713;28;20075;-57
2023/06/06 09:40:51;;;;;;;12.20;5.53;;;13.50;99.90;;;;;;5063839;28;20052;-57
2023/06/06 09:43:27;;;;;;;10.30;5.10;;;13.60;99.90;;;;;;5067508;28;20049;-57
2023/06/06 09:45:57;;;;;;;7.55;4.63;;;13.70;99.90;;;;;;5068045;28;20055;-57
2023/06/06 09:48:29;;;;;;;8.27;4.80;;;13.70;99.90;;;;;;5062818;28;20231;-58
2023/06/06 09:51:00;;;;;;;8.85;3.95;;;13.70;99.90;;;;;;5070800;28;20052;-56
2023/06/06 09:53:30;;;;;;;6.85;3.70;;;13.80;99.90;;;;;;5066228;28;20511;-57
2023/06/06 09:56:06;;;;;;;5.72;3.45;;;13.80;99.90;;;;;;5059757;28;20412;-58
2023/06/06 09:58:35;;;;;;;5.15;3.60;;;13.80;99.90;;;;;;5067298;28;20041;-57
2023/06/06 10:01:03;;;;;;;4.25;3.28;;;13.90;99.90;;;;;;5068261;28;20044;-57
2023/06/06 10:03:35;;;;;;;5.45;3.30;;;13.90;99.90;;;;;;5066459;28;20052;-56
2023/06/06 10:06:05;;;;;;;5.35;3.65;;;13.90;99.90;;;;;;5059093;28;20056;-58
2023/06/06 10:08:35;;;;;;;5.28;2.95;;;13.90;99.90;;;;;;5063421;28;20784;-56
2023/06/06 10:11:04;;;;;;;4.20;2.83;;;14.00;99.90;;;;;;5061295;28;20049;-57
2023/06/06 10:13:39;;;;;;;4.47;2.58;;;14.00;99.90;;;;;;5057619;28;20032;-57
2023/06/06 10:16:09;;;;;;;3.40;2.33;;;14.10;99.90;;;;;;5057325;28;20052;-57
2023/06/06 10:18:41;;;;;;;3.97;2.17;;;14.10;99.90;;;;;;5057197;28;20469;-57
2023/06/06 10:21:09;;;;;;;6.22;2.92;;;14.10;99.90;;;;;;5056087;28;20048;-56
2023/06/06 10:23:37;;;;;;;5.45;2.65;;;14.10;99.90;;;;;;5060126;28;20052;-56
2023/06/06 10:26:07;;;;;;;4.25;3.17;;;14.10;99.90;;;;;;5066904;28;20055;-57
2023/06/06 10:28:44;;;;;;;4.80;2.95;;;14.10;99.90;;;;;;5065181;28;20044;-57
2023/06/06 10:31:49;;;;;;;5.72;3.55;;;14.20;99.90;;;;;;5057276;28;20212;-56
2023/06/06 10:34:24;;;;;;;7.03;4.20;;;14.20;99.90;;;;;;5056020;28;20048;-57
2023/06/06 10:36:54;;;;;;;8.15;4.68;;;14.20;99.90;;;;;;5049359;28;20515;-57
2023/06/06 10:39:24;;;;;;;7.95;4.15;;;14.20;99.90;;;;;;5058555;28;20037;-57
2023/06/06 10:42:08;;;;;;;10.30;5.00;;;14.20;99.90;;;;;;5037071;28;20053;-56
2023/06/06 10:44:44;;;;;;;7.18;4.18;;;14.30;99.90;;;;;;5070006;28;20045;-56
2023/06/06 10:47:21;;;;;;;6.47;4.20;;;14.30;99.90;;;;;;5062799;28;20067;-57
2023/06/06 10:50:11;;;;;;;6.10;3.95;;;14.30;99.90;;;;;;5064457;28;20057;-56
2023/06/06 10:53:04;;;;;;;5.65;3.90;;;14.30;99.90;;;;;;5063233;28;20049;-57
2023/06/06 10:55:32;;;;;;;7.22;4.45;;;14.30;99.90;;;;;;5054823;28;20702;-57
2023/06/06 10:58:13;;;;;;;7.40;4.28;;;14.40;99.90;;;;;;5065095;28;20660;-57
2023/06/06 11:00:51;;;;;;;6.70;3.90;;;14.40;99.90;;;;;;5057445;28;20048;-57
2023/06/06 11:03:30;;;;;;;9.57;4.38;;;14.50;99.90;;;;;;5063769;28;20048;-56
2023/06/06 11:06:01;;;;;;;8.18;4.35;;;14.50;99.90;;;;;;5067478;28;20056;-58
2023/06/06 11:08:33;;;;;;;5.40;3.85;;;14.50;99.90;;;;;;5065794;28;20037;-57
2023/06/06 11:11:18;;;;;;;6.05;3.97;;;14.70;99.90;;;;;;5053564;28;20053;-57
2023/06/06 11:14:00;;;;;;;5.95;3.80;;;14.70;99.90;;;;;;5064199;28;20040;-57
2023/06/06 11:16:45;;;;;;;15.63;5.70;;;14.80;99.90;;;;;;5058268;28;20048;-56
2023/06/06 11:19:19;;;;;;;4.82;3.33;;;14.80;99.90;;;;;;5065757;28;20072;-57
2023/06/06 11:21:57;;;;;;;6.07;4.20;;;14.80;99.90;;;;;;5087738;28;20040;-56
2023/06/06 11:24:35;;;;;;;9.18;3.90;;;14.90;99.90;;;;;;5064138;28;20044;-58
2023/06/06 11:27:04;;;;;;;7.30;4.10;;;14.80;99.90;;;;;;5048717;28;20057;-57
2023/06/06 11:29:33;;;;;;;5.57;3.53;;;14.90;99.90;;;;;;5065759;28;20073;-57
2023/06/06 11:32:02;;;;;;;6.55;3.90;;;14.90;99.90;;;;;;5048755;28;20194;-57
2023/06/06 11:34:32;;;;;;;5.78;3.63;;;15.00;99.90;;;;;;5076454;28;20513;-57
2023/06/06 11:37:00;;;;;;;5.20;3.67;;;15.10;99.90;;;;;;5046799;28;20080;-57
2023/06/06 11:39:29;;;;;;;5.32;4.25;;;15.10;99.90;;;;;;5061643;28;20044;-57
2023/06/06 11:41:58;;;;;;;5.80;4.35;;;15.10;99.90;;;;;;5055377;28;20048;-57
2023/06/06 11:44:35;;;;;;;9.25;4.88;;;15.10;99.90;;;;;;5063836;28;20504;-56
2023/06/06 11:47:08;;;;;;;8.88;4.05;;;15.10;99.90;;;;;;5049922;28;20633;-57
2023/06/06 11:49:44;;;;;;;7.82;4.28;;;15.10;99.90;;;;;;5069218;28;20056;-57
2023/06/06 11:52:13;;;;;;;7.65;4.40;;;15.20;99.90;;;;;;5058737;28;20526;-57
2023/06/06 11:54:51;;;;;;;6.70;4.40;;;15.20;99.90;;;;;;5054938;28;20041;-57
2023/06/06 11:57:20;;;;;;;7.28;4.25;;;15.10;99.90;;;;;;5060593;28;20229;-57
2023/06/06 11:59:56;;;;;;;10.15;5.00;;;15.30;99.90;;;;;;5059377;28;20104;-57
2023/06/06 12:02:25;;;;;;;10.75;5.55;;;15.20;99.90;;;;;;5059848;28;20048;-58
2023/06/06 12:04:53;;;;;;;7.78;4.68;;;15.20;99.90;;;;;;5066790;28;20055;-57
2023/06/06 12:07:22;;;;;;;6.53;4.72;;;15.30;99.90;;;;;;5065431;28;20527;-57
2023/06/06 12:09:58;;;;;;;7.93;4.63;;;15.30;99.90;;;;;;5067209;28;20059;-57
2023/06/06 12:12:27;;;;;;;7.63;4.97;;;15.30;99.90;;;;;;5061729;28;20407;-57
2023/06/06 12:14:56;;;;;;;9.68;4.35;;;15.30;99.90;;;;;;5064738;28;20037;-58
2023/06/06 12:17:29;;;;;;;7.18;4.85;;;15.30;99.90;;;;;;5068298;28;20055;-57
2023/06/06 12:19:57;;;;;;;7.10;5.00;;;15.20;99.90;;;;;;5063733;28;20032;-58
2023/06/06 12:22:37;;;;;;;10.15;5.18;;;15.20;99.90;;;;;;5060813;28;20045;-57
2023/06/06 12:25:05;;;;;;;7.43;5.10;;;15.20;99.90;;;;;;5068281;28;20040;-57
2023/06/06 12:27:33;;;;;;;11.55;5.35;;;15.30;99.90;;;;;;5058258;28;20060;-55
2023/06/06 12:30:02;;;;;;;11.10;6.20;;;15.40;99.90;;;;;;5069339;28;20048;-58
2023/06/06 12:32:30;;;;;;;11.02;6.97;;;15.40;99.90;;;;;;5068798;28;20056;-59
2023/06/06 12:35:03;;;;;;;11.60;6.55;;;15.50;99.90;;;;;;5070347;28;20048;-57
2023/06/06 12:37:43;;;;;;;12.90;5.15;;;15.60;99.90;;;;;;5068895;28;20044;-57
2023/06/06 12:40:17;;;;;;;10.50;5.90;;;15.60;99.90;;;;;;5044150;28;20055;-58
2023/06/06 12:42:55;;;;;;;8.63;5.55;;;15.60;99.90;;;;;;5063488;28;20488;-57
2023/06/06 12:45:25;;;;;;;8.82;5.57;;;15.60;99.90;;;;;;5083029;28;20048;-58
2023/06/06 12:47:58;;;;;;;9.38;5.13;;;15.70;99.90;;;;;;5057116;28;20052;-57
2023/06/06 12:50:26;;;;;;;7.07;4.05;;;15.70;99.90;;;;;;5068619;28;20044;-57
2023/06/06 12:52:54;;;;;;;7.65;4.05;;;15.70;99.90;;;;;;5065446;28;20056;-57
2023/06/06 12:55:22;;;;;;;8.63;4.00;;;15.60;99.90;;;;;;5071215;28;20051;-57
2023/06/06 12:57:50;;;;;;;4.70;3.28;;;15.60;99.90;;;;;;5066192;28;20047;-57
2023/06/06 13:00:19;;;;;;;7.18;4.22;;;15.60;99.90;;;;;;5050662;28;20472;-57